sensor_id;sensor_type;location;lat;lon;timestamp;temperature;humidity
21214;DHT22;10764;50.850;2.904;2022-08-11T00:01:21;23.80;57.00
21214;DHT22;10764;50.850;2.904;2022-08-11T00:04:02;23.30;56.80
21214;DHT22;10764;50.850;2.904;2022-08-11T00:06:32;25.40;57.80
21214;DHT22;10764;50.850;2.904;2022-08-11T00:09:03;23.30;56.90
21214;DHT22;10764;50.850;2.904;2022-08-11T00:11:53;25.30;57.80
21214;DHT22;10764;50.850;2.904;2022-08-11T00:14:29;23.30;56.80
21214;DHT22;10764;50.850;2.904;2022-08-11T00:17:26;23.30;56.80
21214;DHT22;10764;50.850;2.904;2022-08-11T00:20:01;23.30;56.80
21214;DHT22;10764;50.850;2.904;2022-08-11T00:22:44;23.30;56.80
21214;DHT22;10764;50.850;2.904;2022-08-11T00:25:16;23.30;56.80
21214;DHT22;10764;50.850;2.904;2022-08-11T00:27:44;23.30;56.80
21214;DHT22;10764;50.850;2.904;2022-08-11T00:30:13;23.30;56.80
21214;DHT22;10764;50.850;2.904;2022-08-11T00:32:43;23.50;56.90
21214;DHT22;10764;50.850;2.904;2022-08-11T00:35:13;25.90;58.20
21214;DHT22;10764;50.850;2.904;2022-08-11T00:38:02;23.50;56.90
21214;DHT22;10764;50.850;2.904;2022-08-11T00:40:50;23.40;56.90
21214;DHT22;10764;50.850;2.904;2022-08-11T00:46:08;23.40;56.90
21214;DHT22;10764;50.850;2.904;2022-08-11T00:48:55;23.40;56.90
21214;DHT22;10764;50.850;2.904;2022-08-11T00:51:42;24.80;57.60
21214;DHT22;10764;50.850;2.904;2022-08-11T00:58:13;23.40;56.90
21214;DHT22;10764;50.850;2.904;2022-08-11T01:12:44;23.40;56.80
21214;DHT22;10764;50.850;2.904;2022-08-11T01:18:52;23.40;56.80
21214;DHT22;10764;50.850;2.904;2022-08-11T01:47:57;23.50;57.70
21214;DHT22;10764;50.850;2.904;2022-08-11T01:50:54;23.40;57.00
21214;DHT22;10764;50.850;2.904;2022-08-11T01:56:16;23.50;57.20
21214;DHT22;10764;50.850;2.904;2022-08-11T01:59:08;23.50;57.10
21214;DHT22;10764;50.850;2.904;2022-08-11T02:12:45;23.40;57.10
21214;DHT22;10764;50.850;2.904;2022-08-11T02:15:49;23.50;57.00
21214;DHT22;10764;50.850;2.904;2022-08-11T02:18:26;23.50;56.40
21214;DHT22;10764;50.850;2.904;2022-08-11T02:21:20;23.50;57.00
21214;DHT22;10764;50.850;2.904;2022-08-11T02:24:22;23.50;57.00
21214;DHT22;10764;50.850;2.904;2022-08-11T02:27:06;24.30;57.30
21214;DHT22;10764;50.850;2.904;2022-08-11T02:29:58;23.50;56.90
21214;DHT22;10764;50.850;2.904;2022-08-11T02:36:21;23.50;56.80
21214;DHT22;10764;50.850;2.904;2022-08-11T02:39:02;23.50;56.80
21214;DHT22;10764;50.850;2.904;2022-08-11T02:45:01;23.50;56.80
21214;DHT22;10764;50.850;2.904;2022-08-11T02:54:43;23.50;56.80
21214;DHT22;10764;50.850;2.904;2022-08-11T02:57:22;23.50;56.90
21214;DHT22;10764;50.850;2.904;2022-08-11T03:00:04;23.50;56.90
21214;DHT22;10764;50.850;2.904;2022-08-11T03:14:11;23.50;56.80
21214;DHT22;10764;50.850;2.904;2022-08-11T03:20:22;23.50;56.80
21214;DHT22;10764;50.850;2.904;2022-08-11T03:25:33;23.50;56.80
21214;DHT22;10764;50.850;2.904;2022-08-11T03:28:33;23.50;56.90
21214;DHT22;10764;50.850;2.904;2022-08-11T03:33:48;23.50;56.80
21214;DHT22;10764;50.850;2.904;2022-08-11T03:46:35;23.50;56.60
21214;DHT22;10764;50.850;2.904;2022-08-11T04:06:34;23.50;56.60
21214;DHT22;10764;50.850;2.904;2022-08-11T04:09:40;23.40;56.60
21214;DHT22;10764;50.850;2.904;2022-08-11T04:20:58;23.50;56.70
21214;DHT22;10764;50.850;2.904;2022-08-11T04:33:21;23.50;56.60
21214;DHT22;10764;50.850;2.904;2022-08-11T05:12:52;23.60;56.40
21214;DHT22;10764;50.850;2.904;2022-08-11T05:15:33;25.40;57.80
21214;DHT22;10764;50.850;2.904;2022-08-11T05:18:23;23.50;56.90
21214;DHT22;10764;50.850;2.904;2022-08-11T05:21:11;23.40;56.50
21214;DHT22;10764;50.850;2.904;2022-08-11T05:24:18;23.50;55.90
21214;DHT22;10764;50.850;2.904;2022-08-11T05:27:16;24.30;56.90
21214;DHT22;10764;50.850;2.904;2022-08-11T05:30:05;23.40;55.80
21214;DHT22;10764;50.850;2.904;2022-08-11T05:36:10;23.50;56.40
21214;DHT22;10764;50.850;2.904;2022-08-11T05:38:38;23.50;56.30
21214;DHT22;10764;50.850;2.904;2022-08-11T05:41:25;23.40;55.40
21214;DHT22;10764;50.850;2.904;2022-08-11T05:44:18;23.40;56.10
21214;DHT22;10764;50.850;2.904;2022-08-11T05:47:05;23.40;55.30
21214;DHT22;10764;50.850;2.904;2022-08-11T05:49:52;23.50;56.40
21214;DHT22;10764;50.850;2.904;2022-08-11T05:52:44;23.50;56.80
21214;DHT22;10764;50.850;2.904;2022-08-11T05:55:39;23.40;55.20
21214;DHT22;10764;50.850;2.904;2022-08-11T05:58:40;23.40;55.60
21214;DHT22;10764;50.850;2.904;2022-08-11T06:01:13;23.50;56.60
21214;DHT22;10764;50.850;2.904;2022-08-11T06:03:50;23.50;57.20
21214;DHT22;10764;50.850;2.904;2022-08-11T06:06:37;23.50;56.20
21214;DHT22;10764;50.850;2.904;2022-08-11T06:09:11;23.40;56.20
21214;DHT22;10764;50.850;2.904;2022-08-11T06:11:41;23.40;56.20
21214;DHT22;10764;50.850;2.904;2022-08-11T06:14:11;23.60;57.50
21214;DHT22;10764;50.850;2.904;2022-08-11T06:16:40;23.50;57.70
21214;DHT22;10764;50.850;2.904;2022-08-11T06:19:08;23.50;57.00
21214;DHT22;10764;50.850;2.904;2022-08-11T06:21:36;23.50;57.40
21214;DHT22;10764;50.850;2.904;2022-08-11T06:24:11;21.60;58.00
21214;DHT22;10764;50.850;2.904;2022-08-11T06:26:40;23.60;58.90
21214;DHT22;10764;50.850;2.904;2022-08-11T06:29:27;23.50;57.80
21214;DHT22;10764;50.850;2.904;2022-08-11T06:32:12;23.50;57.70
21214;DHT22;10764;50.850;2.904;2022-08-11T06:37:23;23.50;59.90
21214;DHT22;10764;50.850;2.904;2022-08-11T06:40:10;23.50;57.20
21214;DHT22;10764;50.850;2.904;2022-08-11T06:42:59;23.60;57.70
21214;DHT22;10764;50.850;2.904;2022-08-11T06:45:36;23.60;57.40
21214;DHT22;10764;50.850;2.904;2022-08-11T06:48:08;23.60;56.70
21214;DHT22;10764;50.850;2.904;2022-08-11T06:50:50;23.60;57.80
21214;DHT22;10764;50.850;2.904;2022-08-11T06:53:49;23.60;57.70
21214;DHT22;10764;50.850;2.904;2022-08-11T06:56:38;23.60;57.00
21214;DHT22;10764;50.850;2.904;2022-08-11T06:59:45;23.60;56.60
21214;DHT22;10764;50.850;2.904;2022-08-11T07:03:07;23.60;56.30
21214;DHT22;10764;50.850;2.904;2022-08-11T07:06:00;23.50;56.60
21214;DHT22;10764;50.850;2.904;2022-08-11T07:11:59;23.50;56.50
21214;DHT22;10764;50.850;2.904;2022-08-11T07:14:55;23.60;56.50
21214;DHT22;10764;50.850;2.904;2022-08-11T07:17:44;23.60;56.60
21214;DHT22;10764;50.850;2.904;2022-08-11T07:20:16;23.60;55.70
21214;DHT22;10764;50.850;2.904;2022-08-11T07:23:03;23.60;55.90
21214;DHT22;10764;50.850;2.904;2022-08-11T07:25:52;23.70;56.80
21214;DHT22;10764;50.850;2.904;2022-08-11T07:28:42;23.60;55.50
21214;DHT22;10764;50.850;2.904;2022-08-11T07:31:44;23.60;56.60
21214;DHT22;10764;50.850;2.904;2022-08-11T07:34:34;23.60;55.40
21214;DHT22;10764;50.850;2.904;2022-08-11T07:37:12;23.70;55.40
21214;DHT22;10764;50.850;2.904;2022-08-11T07:39:42;23.60;56.50
21214;DHT22;10764;50.850;2.904;2022-08-11T07:42:15;23.90;56.60
21214;DHT22;10764;50.850;2.904;2022-08-11T07:44:47;23.70;55.90
21214;DHT22;10764;50.850;2.904;2022-08-11T07:47:35;23.60;55.40
21214;DHT22;10764;50.850;2.904;2022-08-11T07:50:21;23.60;55.90
21214;DHT22;10764;50.850;2.904;2022-08-11T07:53:08;23.70;55.10
21214;DHT22;10764;50.850;2.904;2022-08-11T07:55:36;23.60;55.00
21214;DHT22;10764;50.850;2.904;2022-08-11T07:58:20;23.70;55.60
21214;DHT22;10764;50.850;2.904;2022-08-11T08:01:18;23.60;55.00
21214;DHT22;10764;50.850;2.904;2022-08-11T08:04:05;23.60;55.70
21214;DHT22;10764;50.850;2.904;2022-08-11T08:06:51;26.70;57.50
21214;DHT22;10764;50.850;2.904;2022-08-11T08:09:38;23.60;55.30
21214;DHT22;10764;50.850;2.904;2022-08-11T08:12:25;23.70;56.30
21214;DHT22;10764;50.850;2.904;2022-08-11T08:15:13;23.60;55.30
21214;DHT22;10764;50.850;2.904;2022-08-11T08:18:01;23.60;55.00
21214;DHT22;10764;50.850;2.904;2022-08-11T08:20:49;23.60;55.00
21214;DHT22;10764;50.850;2.904;2022-08-11T08:23:18;23.30;54.90
21214;DHT22;10764;50.850;2.904;2022-08-11T08:26:03;23.70;55.00
21214;DHT22;10764;50.850;2.904;2022-08-11T08:28:43;23.60;54.90
21214;DHT22;10764;50.850;2.904;2022-08-11T08:31:13;23.60;55.10
21214;DHT22;10764;50.850;2.904;2022-08-11T08:33:41;23.60;54.80
21214;DHT22;10764;50.850;2.904;2022-08-11T08:36:08;23.60;54.80
21214;DHT22;10764;50.850;2.904;2022-08-11T08:38:40;24.60;55.20
21214;DHT22;10764;50.850;2.904;2022-08-11T08:41:08;25.70;56.60
21214;DHT22;10764;50.850;2.904;2022-08-11T08:43:44;23.70;55.70
21214;DHT22;10764;50.850;2.904;2022-08-11T08:46:22;23.60;54.80
21214;DHT22;10764;50.850;2.904;2022-08-11T08:48:51;23.60;54.80
21214;DHT22;10764;50.850;2.904;2022-08-11T08:51:20;22.90;54.40
21214;DHT22;10764;50.850;2.904;2022-08-11T08:54:29;23.60;54.80
21214;DHT22;10764;50.850;2.904;2022-08-11T08:56:59;23.70;54.70
21214;DHT22;10764;50.850;2.904;2022-08-11T08:59:35;23.70;54.70
21214;DHT22;10764;50.850;2.904;2022-08-11T09:02:16;23.80;54.70
21214;DHT22;10764;50.850;2.904;2022-08-11T09:05:00;23.70;54.70
21214;DHT22;10764;50.850;2.904;2022-08-11T09:10:09;23.60;54.80
21214;DHT22;10764;50.850;2.904;2022-08-11T09:12:39;23.70;54.60
21214;DHT22;10764;50.850;2.904;2022-08-11T09:15:10;23.60;54.50
21214;DHT22;10764;50.850;2.904;2022-08-11T09:17:42;23.80;54.50
21214;DHT22;10764;50.850;2.904;2022-08-11T09:20:17;23.80;54.50
21214;DHT22;10764;50.850;2.904;2022-08-11T09:22:47;23.70;54.40
21214;DHT22;10764;50.850;2.904;2022-08-11T09:25:58;23.70;54.30
21214;DHT22;10764;50.850;2.904;2022-08-11T09:28:45;23.70;54.20
21214;DHT22;10764;50.850;2.904;2022-08-11T09:31:13;23.60;54.10
21214;DHT22;10764;50.850;2.904;2022-08-11T09:33:42;23.60;54.00
21214;DHT22;10764;50.850;2.904;2022-08-11T09:36:11;23.80;53.90
21214;DHT22;10764;50.850;2.904;2022-08-11T09:38:59;23.80;53.90
21214;DHT22;10764;50.850;2.904;2022-08-11T09:42:03;23.80;53.80
21214;DHT22;10764;50.850;2.904;2022-08-11T09:44:32;23.60;54.00
21214;DHT22;10764;50.850;2.904;2022-08-11T09:47:20;23.80;53.70
21214;DHT22;10764;50.850;2.904;2022-08-11T09:49:48;23.70;53.70
21214;DHT22;10764;50.850;2.904;2022-08-11T09:52:17;23.80;54.40
21214;DHT22;10764;50.850;2.904;2022-08-11T09:54:47;23.80;54.60
21214;DHT22;10764;50.850;2.904;2022-08-11T09:57:19;23.70;54.20
21214;DHT22;10764;50.850;2.904;2022-08-11T10:00:11;23.80;54.00
21214;DHT22;10764;50.850;2.904;2022-08-11T10:02:49;23.80;53.80
21214;DHT22;10764;50.850;2.904;2022-08-11T10:05:19;22.80;53.10
21214;DHT22;10764;50.850;2.904;2022-08-11T10:08:06;24.20;53.70
21214;DHT22;10764;50.850;2.904;2022-08-11T10:10:38;23.80;53.30
21214;DHT22;10764;50.850;2.904;2022-08-11T10:13:08;23.80;53.20
21214;DHT22;10764;50.850;2.904;2022-08-11T10:15:58;23.80;53.10
21214;DHT22;10764;50.850;2.904;2022-08-11T10:18:41;23.70;52.20
21214;DHT22;10764;50.850;2.904;2022-08-11T10:21:12;23.80;52.80
21214;DHT22;10764;50.850;2.904;2022-08-11T10:23:40;25.70;53.70
21214;DHT22;10764;50.850;2.904;2022-08-11T10:26:32;24.00;52.70
21214;DHT22;10764;50.850;2.904;2022-08-11T10:29:25;23.80;52.70
21214;DHT22;10764;50.850;2.904;2022-08-11T10:32:28;25.50;53.50
21214;DHT22;10764;50.850;2.904;2022-08-11T10:35:30;23.80;52.70
21214;DHT22;10764;50.850;2.904;2022-08-11T10:37:58;25.70;54.00
21214;DHT22;10764;50.850;2.904;2022-08-11T10:40:37;23.80;52.20
21214;DHT22;10764;50.850;2.904;2022-08-11T10:43:05;23.80;52.00
21214;DHT22;10764;50.850;2.904;2022-08-11T10:45:44;23.80;51.70
21214;DHT22;10764;50.850;2.904;2022-08-11T10:48:35;23.80;51.40
21214;DHT22;10764;50.850;2.904;2022-08-11T10:51:04;23.80;51.30
21214;DHT22;10764;50.850;2.904;2022-08-11T10:53:43;23.80;51.00
21214;DHT22;10764;50.850;2.904;2022-08-11T10:56:32;23.80;50.90
21214;DHT22;10764;50.850;2.904;2022-08-11T10:59:19;23.80;50.70
21214;DHT22;10764;50.850;2.904;2022-08-11T11:01:48;23.80;50.60
21214;DHT22;10764;50.850;2.904;2022-08-11T11:04:20;23.80;50.40
21214;DHT22;10764;50.850;2.904;2022-08-11T11:07:05;23.70;50.20
21214;DHT22;10764;50.850;2.904;2022-08-11T11:09:39;23.80;50.20
21214;DHT22;10764;50.850;2.904;2022-08-11T11:12:18;23.80;50.10
21214;DHT22;10764;50.850;2.904;2022-08-11T11:15:08;23.80;50.00
21214;DHT22;10764;50.850;2.904;2022-08-11T11:18:10;23.80;49.90
21214;DHT22;10764;50.850;2.904;2022-08-11T11:20:43;23.80;49.70
21214;DHT22;10764;50.850;2.904;2022-08-11T11:23:48;23.80;49.60
21214;DHT22;10764;50.850;2.904;2022-08-11T11:26:42;23.80;49.40
21214;DHT22;10764;50.850;2.904;2022-08-11T11:38:01;23.80;49.10
21214;DHT22;10764;50.850;2.904;2022-08-11T11:40:32;24.20;49.30
21214;DHT22;10764;50.850;2.904;2022-08-11T11:42:59;23.80;49.10
21214;DHT22;10764;50.850;2.904;2022-08-11T11:45:27;23.80;49.10
21214;DHT22;10764;50.850;2.904;2022-08-11T11:47:56;25.40;49.90
21214;DHT22;10764;50.850;2.904;2022-08-11T11:50:24;23.80;49.10
21214;DHT22;10764;50.850;2.904;2022-08-11T11:53:00;23.80;49.20
21214;DHT22;10764;50.850;2.904;2022-08-11T11:55:28;23.80;49.10
21214;DHT22;10764;50.850;2.904;2022-08-11T11:57:58;23.80;49.20
21214;DHT22;10764;50.850;2.904;2022-08-11T12:00:45;23.80;49.10
21214;DHT22;10764;50.850;2.904;2022-08-11T12:03:33;23.90;49.10
21214;DHT22;10764;50.850;2.904;2022-08-11T12:06:01;23.80;49.00
21214;DHT22;10764;50.850;2.904;2022-08-11T12:08:29;23.90;48.90
21214;DHT22;10764;50.850;2.904;2022-08-11T12:11:02;23.80;48.80
21214;DHT22;10764;50.850;2.904;2022-08-11T12:13:49;23.80;48.80
21214;DHT22;10764;50.850;2.904;2022-08-11T12:16:19;23.80;48.80
21214;DHT22;10764;50.850;2.904;2022-08-11T12:19:07;23.90;48.90
21214;DHT22;10764;50.850;2.904;2022-08-11T12:21:35;23.90;48.70
21214;DHT22;10764;50.850;2.904;2022-08-11T12:24:03;23.80;48.70
21214;DHT22;10764;50.850;2.904;2022-08-11T12:26:56;23.80;48.70
21214;DHT22;10764;50.850;2.904;2022-08-11T12:29:55;23.80;48.70
21214;DHT22;10764;50.850;2.904;2022-08-11T12:32:30;23.90;48.70
21214;DHT22;10764;50.850;2.904;2022-08-11T12:34:57;23.90;48.70
21214;DHT22;10764;50.850;2.904;2022-08-11T12:37:34;23.90;48.80
21214;DHT22;10764;50.850;2.904;2022-08-11T12:40:06;23.80;48.60
21214;DHT22;10764;50.850;2.904;2022-08-11T12:43:18;23.80;47.90
21214;DHT22;10764;50.850;2.904;2022-08-11T12:46:09;23.90;48.60
21214;DHT22;10764;50.850;2.904;2022-08-11T12:48:44;23.80;47.80
21214;DHT22;10764;50.850;2.904;2022-08-11T12:51:40;23.90;48.60
21214;DHT22;10764;50.850;2.904;2022-08-11T12:57:37;23.90;48.50
21214;DHT22;10764;50.850;2.904;2022-08-11T13:00:26;23.90;48.40
21214;DHT22;10764;50.850;2.904;2022-08-11T13:03:13;23.90;47.80
21214;DHT22;10764;50.850;2.904;2022-08-11T13:06:03;23.80;47.60
21214;DHT22;10764;50.850;2.904;2022-08-11T13:08:35;23.90;48.20
21214;DHT22;10764;50.850;2.904;2022-08-11T13:11:03;23.90;48.80
21214;DHT22;10764;50.850;2.904;2022-08-11T13:13:50;23.90;48.00
21214;DHT22;10764;50.850;2.904;2022-08-11T13:16:27;23.80;47.10
21214;DHT22;10764;50.850;2.904;2022-08-11T13:18:59;23.80;47.00
21214;DHT22;10764;50.850;2.904;2022-08-11T13:21:28;21.30;45.70
21214;DHT22;10764;50.850;2.904;2022-08-11T13:23:55;23.80;47.80
21214;DHT22;10764;50.850;2.904;2022-08-11T13:26:33;23.90;47.50
21214;DHT22;10764;50.850;2.904;2022-08-11T13:29:23;24.30;47.70
21214;DHT22;10764;50.850;2.904;2022-08-11T13:31:53;23.90;47.40
21214;DHT22;10764;50.850;2.904;2022-08-11T13:34:23;23.90;47.40
21214;DHT22;10764;50.850;2.904;2022-08-11T13:36:52;23.90;47.40
21214;DHT22;10764;50.850;2.904;2022-08-11T13:39:23;23.90;46.70
21214;DHT22;10764;50.850;2.904;2022-08-11T13:41:56;23.90;47.50
21214;DHT22;10764;50.850;2.904;2022-08-11T13:44:27;23.80;47.30
21214;DHT22;10764;50.850;2.904;2022-08-11T13:46:57;23.90;46.70
21214;DHT22;10764;50.850;2.904;2022-08-11T13:49:25;23.90;47.40
21214;DHT22;10764;50.850;2.904;2022-08-11T13:51:54;23.90;47.30
21214;DHT22;10764;50.850;2.904;2022-08-11T13:54:24;23.90;47.20
21214;DHT22;10764;50.850;2.904;2022-08-11T13:56:54;26.30;48.50
21214;DHT22;10764;50.850;2.904;2022-08-11T13:59:23;23.90;46.40
21214;DHT22;10764;50.850;2.904;2022-08-11T14:02:02;23.90;47.00
21214;DHT22;10764;50.850;2.904;2022-08-11T14:04:55;23.90;46.20
21214;DHT22;10764;50.850;2.904;2022-08-11T14:07:26;23.90;46.10
21214;DHT22;10764;50.850;2.904;2022-08-11T14:10:01;23.90;46.00
21214;DHT22;10764;50.850;2.904;2022-08-11T14:12:30;23.90;45.90
21214;DHT22;10764;50.850;2.904;2022-08-11T14:15:23;23.90;46.60
21214;DHT22;10764;50.850;2.904;2022-08-11T14:17:54;23.90;46.40
21214;DHT22;10764;50.850;2.904;2022-08-11T14:20:23;23.90;46.40
21214;DHT22;10764;50.850;2.904;2022-08-11T14:23:06;24.00;46.40
21214;DHT22;10764;50.850;2.904;2022-08-11T14:25:33;23.90;46.30
21214;DHT22;10764;50.850;2.904;2022-08-11T14:28:20;23.90;46.20
21214;DHT22;10764;50.850;2.904;2022-08-11T14:31:08;23.90;46.20
21214;DHT22;10764;50.850;2.904;2022-08-11T14:33:35;24.00;46.20
21214;DHT22;10764;50.850;2.904;2022-08-11T14:36:24;23.90;45.90
21214;DHT22;10764;50.850;2.904;2022-08-11T14:38:53;23.90;45.90
21214;DHT22;10764;50.850;2.904;2022-08-11T14:41:22;23.90;45.90
21214;DHT22;10764;50.850;2.904;2022-08-11T14:44:30;24.00;45.90
21214;DHT22;10764;50.850;2.904;2022-08-11T14:47:19;24.00;45.80
21214;DHT22;10764;50.850;2.904;2022-08-11T14:49:53;24.00;45.80
21214;DHT22;10764;50.850;2.904;2022-08-11T14:55:26;23.90;45.90
21214;DHT22;10764;50.850;2.904;2022-08-11T14:58:17;23.80;46.30
21214;DHT22;10764;50.850;2.904;2022-08-11T15:00:45;23.80;46.30
21214;DHT22;10764;50.850;2.904;2022-08-11T15:03:13;23.70;46.20
21214;DHT22;10764;50.850;2.904;2022-08-11T15:05:49;23.60;46.00
21214;DHT22;10764;50.850;2.904;2022-08-11T15:08:26;23.60;45.80
21214;DHT22;10764;50.850;2.904;2022-08-11T15:11:15;24.50;46.20
21214;DHT22;10764;50.850;2.904;2022-08-11T15:14:03;23.50;46.10
21214;DHT22;10764;50.850;2.904;2022-08-11T15:16:31;23.50;46.60
21214;DHT22;10764;50.850;2.904;2022-08-11T15:19:19;23.50;47.00
21214;DHT22;10764;50.850;2.904;2022-08-11T15:21:49;23.40;46.90
21214;DHT22;10764;50.850;2.904;2022-08-11T15:24:35;23.10;46.30
21214;DHT22;10764;50.850;2.904;2022-08-11T15:27:12;23.40;45.50
21214;DHT22;10764;50.850;2.904;2022-08-11T15:30:00;23.40;45.60
21214;DHT22;10764;50.850;2.904;2022-08-11T15:33:07;23.40;46.20
21214;DHT22;10764;50.850;2.904;2022-08-11T15:35:54;23.50;46.30
21214;DHT22;10764;50.850;2.904;2022-08-11T15:38:50;23.40;46.30
21214;DHT22;10764;50.850;2.904;2022-08-11T15:41:25;23.70;46.30
21214;DHT22;10764;50.850;2.904;2022-08-11T15:44:28;22.80;46.60
21214;DHT22;10764;50.850;2.904;2022-08-11T15:47:51;23.30;47.20
21214;DHT22;10764;50.850;2.904;2022-08-11T15:50:34;23.30;47.30
21214;DHT22;10764;50.850;2.904;2022-08-11T15:53:08;23.40;47.50
21214;DHT22;10764;50.850;2.904;2022-08-11T15:55:38;23.40;47.30
21214;DHT22;10764;50.850;2.904;2022-08-11T15:58:07;23.40;47.30
21214;DHT22;10764;50.850;2.904;2022-08-11T16:00:55;23.80;47.60
21214;DHT22;10764;50.850;2.904;2022-08-11T16:03:54;23.40;47.40
21214;DHT22;10764;50.850;2.904;2022-08-11T16:09:40;23.30;47.10
21214;DHT22;10764;50.850;2.904;2022-08-11T16:12:17;23.40;47.10
21214;DHT22;10764;50.850;2.904;2022-08-11T16:14:49;23.40;47.30
21214;DHT22;10764;50.850;2.904;2022-08-11T16:17:45;23.30;46.40
21214;DHT22;10764;50.850;2.904;2022-08-11T16:20:14;23.30;47.10
21214;DHT22;10764;50.850;2.904;2022-08-11T16:22:44;23.40;47.10
21214;DHT22;10764;50.850;2.904;2022-08-11T16:25:29;23.30;47.00
21214;DHT22;10764;50.850;2.904;2022-08-11T16:28:20;23.40;47.00
21214;DHT22;10764;50.850;2.904;2022-08-11T16:30:48;23.40;47.10
21214;DHT22;10764;50.850;2.904;2022-08-11T16:33:16;23.30;47.00
21214;DHT22;10764;50.850;2.904;2022-08-11T16:36:04;23.30;47.00
21214;DHT22;10764;50.850;2.904;2022-08-11T16:38:52;23.30;46.90
21214;DHT22;10764;50.850;2.904;2022-08-11T16:41:21;23.20;46.80
21214;DHT22;10764;50.850;2.904;2022-08-11T16:44:09;23.30;46.70
21214;DHT22;10764;50.850;2.904;2022-08-11T16:47:09;23.30;46.80
21214;DHT22;10764;50.850;2.904;2022-08-11T16:49:48;23.30;46.70
21214;DHT22;10764;50.850;2.904;2022-08-11T16:52:20;23.20;46.60
21214;DHT22;10764;50.850;2.904;2022-08-11T16:54:48;23.30;46.60
21214;DHT22;10764;50.850;2.904;2022-08-11T16:57:23;23.20;46.60
21214;DHT22;10764;50.850;2.904;2022-08-11T17:00:14;23.30;46.40
21214;DHT22;10764;50.850;2.904;2022-08-11T17:02:48;23.30;46.50
21214;DHT22;10764;50.850;2.904;2022-08-11T17:05:35;23.30;46.50
21214;DHT22;10764;50.850;2.904;2022-08-11T17:08:37;23.30;46.40
21214;DHT22;10764;50.850;2.904;2022-08-11T17:11:30;24.20;46.70
21214;DHT22;10764;50.850;2.904;2022-08-11T17:14:23;23.30;46.30
21214;DHT22;10764;50.850;2.904;2022-08-11T17:17:11;23.30;46.20
21214;DHT22;10764;50.850;2.904;2022-08-11T17:19:46;23.30;46.30
21214;DHT22;10764;50.850;2.904;2022-08-11T17:22:36;23.30;46.60
21214;DHT22;10764;50.850;2.904;2022-08-11T17:25:25;23.30;46.00
21214;DHT22;10764;50.850;2.904;2022-08-11T17:27:54;23.30;46.70
21214;DHT22;10764;50.850;2.904;2022-08-11T17:30:22;23.70;47.20
21214;DHT22;10764;50.850;2.904;2022-08-11T17:33:11;23.30;47.00
21214;DHT22;10764;50.850;2.904;2022-08-11T17:35:59;23.40;47.10
21214;DHT22;10764;50.850;2.904;2022-08-11T17:38:27;23.40;47.20
21214;DHT22;10764;50.850;2.904;2022-08-11T17:40:58;23.40;47.40
21214;DHT22;10764;50.850;2.904;2022-08-11T17:43:50;23.70;47.70
21214;DHT22;10764;50.850;2.904;2022-08-11T17:46:38;23.30;47.70
21214;DHT22;10764;50.850;2.904;2022-08-11T17:49:33;23.30;47.90
21214;DHT22;10764;50.850;2.904;2022-08-11T17:52:04;23.70;48.10
21214;DHT22;10764;50.850;2.904;2022-08-11T17:54:52;23.40;48.10
21214;DHT22;10764;50.850;2.904;2022-08-11T17:57:40;23.60;48.30
21214;DHT22;10764;50.850;2.904;2022-08-11T18:00:25;24.20;48.70
21214;DHT22;10764;50.850;2.904;2022-08-11T18:02:53;23.90;48.70
21214;DHT22;10764;50.850;2.904;2022-08-11T18:05:42;23.30;48.50
21214;DHT22;10764;50.850;2.904;2022-08-11T18:08:11;23.30;48.60
21214;DHT22;10764;50.850;2.904;2022-08-11T18:10:59;23.30;48.70
21214;DHT22;10764;50.850;2.904;2022-08-11T18:14:07;23.30;48.80
21214;DHT22;10764;50.850;2.904;2022-08-11T18:16:53;23.30;48.80
21214;DHT22;10764;50.850;2.904;2022-08-11T18:19:38;23.30;49.00
21214;DHT22;10764;50.850;2.904;2022-08-11T18:22:29;23.80;49.20
21214;DHT22;10764;50.850;2.904;2022-08-11T18:25:19;23.00;48.90
21214;DHT22;10764;50.850;2.904;2022-08-11T18:28:13;23.30;49.10
21214;DHT22;10764;50.850;2.904;2022-08-11T18:31:02;23.30;49.30
21214;DHT22;10764;50.850;2.904;2022-08-11T18:33:54;23.30;49.40
21214;DHT22;10764;50.850;2.904;2022-08-11T18:36:50;23.80;49.70
21214;DHT22;10764;50.850;2.904;2022-08-11T18:40:13;23.30;49.60
21214;DHT22;10764;50.850;2.904;2022-08-11T18:43:01;23.30;49.60
21214;DHT22;10764;50.850;2.904;2022-08-11T18:46:00;23.40;49.10
21214;DHT22;10764;50.850;2.904;2022-08-11T18:48:52;23.30;49.00
21214;DHT22;10764;50.850;2.904;2022-08-11T18:51:45;23.40;49.70
21214;DHT22;10764;50.850;2.904;2022-08-11T18:54:34;23.30;49.80
21214;DHT22;10764;50.850;2.904;2022-08-11T18:57:21;23.20;49.70
21214;DHT22;10764;50.850;2.904;2022-08-11T19:00:22;23.30;49.90
21214;DHT22;10764;50.850;2.904;2022-08-11T19:03:11;24.70;50.60
21214;DHT22;10764;50.850;2.904;2022-08-11T19:06:00;23.40;50.00
21214;DHT22;10764;50.850;2.904;2022-08-11T19:09:07;23.40;50.00
21214;DHT22;10764;50.850;2.904;2022-08-11T19:11:56;23.30;50.10
21214;DHT22;10764;50.850;2.904;2022-08-11T19:14:44;23.30;50.20
21214;DHT22;10764;50.850;2.904;2022-08-11T19:17:30;23.20;50.30
21214;DHT22;10764;50.850;2.904;2022-08-11T19:20:20;23.10;50.20
21214;DHT22;10764;50.850;2.904;2022-08-11T19:23:08;23.20;50.40
21214;DHT22;10764;50.850;2.904;2022-08-11T19:25:56;23.30;50.20
21214;DHT22;10764;50.850;2.904;2022-08-11T19:28:45;24.00;50.20
21214;DHT22;10764;50.850;2.904;2022-08-11T19:31:33;23.30;50.80
21214;DHT22;10764;50.850;2.904;2022-08-11T19:34:22;23.40;50.50
21214;DHT22;10764;50.850;2.904;2022-08-11T19:37:09;23.10;50.50
21214;DHT22;10764;50.850;2.904;2022-08-11T19:40:05;23.30;50.80
21214;DHT22;10764;50.850;2.904;2022-08-11T19:42:52;23.30;50.80
21214;DHT22;10764;50.850;2.904;2022-08-11T19:45:55;23.30;50.80
21214;DHT22;10764;50.850;2.904;2022-08-11T19:48:43;23.30;50.90
21214;DHT22;10764;50.850;2.904;2022-08-11T19:51:30;23.30;50.90
21214;DHT22;10764;50.850;2.904;2022-08-11T19:54:26;23.30;50.90
21214;DHT22;10764;50.850;2.904;2022-08-11T19:57:13;23.20;50.90
21214;DHT22;10764;50.850;2.904;2022-08-11T20:00:09;23.00;50.90
21214;DHT22;10764;50.850;2.904;2022-08-11T20:02:58;23.30;51.10
21214;DHT22;10764;50.850;2.904;2022-08-11T20:05:44;23.20;51.00
21214;DHT22;10764;50.850;2.904;2022-08-11T20:08:32;23.20;50.90
21214;DHT22;10764;50.850;2.904;2022-08-11T20:11:24;23.20;51.40
21214;DHT22;10764;50.850;2.904;2022-08-11T20:14:11;23.10;50.40
21214;DHT22;10764;50.850;2.904;2022-08-11T20:16:57;23.00;49.90
21214;DHT22;10764;50.850;2.904;2022-08-11T20:19:43;23.00;49.20
21214;DHT22;10764;50.850;2.904;2022-08-11T20:22:29;23.00;48.40
21214;DHT22;10764;50.850;2.904;2022-08-11T20:25:16;22.90;47.60
21214;DHT22;10764;50.850;2.904;2022-08-11T20:28:04;22.90;46.90
21214;DHT22;10764;50.850;2.904;2022-08-11T20:30:51;22.80;46.20
21214;DHT22;10764;50.850;2.904;2022-08-11T20:33:38;22.50;45.60